sensor_id;sensor_type;location;lat;lon;timestamp;temperature;humidity
8214;DHT22;4148;47.974;7.824;2022-09-13T00:00:07;15.40;1.00
8214;DHT22;4148;47.974;7.824;2022-09-13T00:02:36;15.30;99.90
8214;DHT22;4148;47.974;7.824;2022-09-13T00:05:05;15.20;99.90
8214;DHT22;4148;47.974;7.824;2022-09-13T00:07:33;15.10;99.90
8214;DHT22;4148;47.974;7.824;2022-09-13T00:10:01;15.20;1.00
8214;DHT22;4148;47.974;7.824;2022-09-13T00:12:29;15.10;20.20
8214;DHT22;4148;47.974;7.824;2022-09-13T00:14:56;15.00;99.90
8214;DHT22;4148;47.974;7.824;2022-09-13T00:17:25;14.90;99.90
8214;DHT22;4148;47.974;7.824;2022-09-13T00:19:54;14.90;1.00
8214;DHT22;4148;47.974;7.824;2022-09-13T00:22:22;14.90;99.90
8214;DHT22;4148;47.974;7.824;2022-09-13T00:24:50;15.00;99.90
8214;DHT22;4148;47.974;7.824;2022-09-13T00:27:18;15.10;99.90
8214;DHT22;4148;47.974;7.824;2022-09-13T00:29:46;15.10;1.00
8214;DHT22;4148;47.974;7.824;2022-09-13T00:32:13;14.90;1.00
8214;DHT22;4148;47.974;7.824;2022-09-13T00:34:41;14.80;1.00
8214;DHT22;4148;47.974;7.824;2022-09-13T00:37:10;14.70;1.00
8214;DHT22;4148;47.974;7.824;2022-09-13T00:39:38;14.70;61.80
8214;DHT22;4148;47.974;7.824;2022-09-13T00:42:08;14.60;99.90
8214;DHT22;4148;47.974;7.824;2022-09-13T00:44:55;14.60;99.90
8214;DHT22;4148;47.974;7.824;2022-09-13T00:47:32;14.80;99.90
8214;DHT22;4148;47.974;7.824;2022-09-13T00:50:06;14.90;1.00
8214;DHT22;4148;47.974;7.824;2022-09-13T00:52:38;14.90;1.00
8214;DHT22;4148;47.974;7.824;2022-09-13T00:55:15;14.90;1.00
8214;DHT22;4148;47.974;7.824;2022-09-13T00:57:44;14.80;1.00
8214;DHT22;4148;47.974;7.824;2022-09-13T01:00:15;14.70;1.00
8214;DHT22;4148;47.974;7.824;2022-09-13T01:02:46;14.70;1.00
8214;DHT22;4148;47.974;7.824;2022-09-13T01:05:18;14.70;99.90
8214;DHT22;4148;47.974;7.824;2022-09-13T01:07:49;14.80;1.00
8214;DHT22;4148;47.974;7.824;2022-09-13T01:10:17;14.80;99.90
8214;DHT22;4148;47.974;7.824;2022-09-13T01:12:49;14.80;99.90
8214;DHT22;4148;47.974;7.824;2022-09-13T01:15:20;14.70;99.90
8214;DHT22;4148;47.974;7.824;2022-09-13T01:17:48;14.60;99.90
8214;DHT22;4148;47.974;7.824;2022-09-13T01:20:17;14.70;99.90
8214;DHT22;4148;47.974;7.824;2022-09-13T01:23:16;14.70;99.90
8214;DHT22;4148;47.974;7.824;2022-09-13T01:29:10;14.70;99.90
8214;DHT22;4148;47.974;7.824;2022-09-13T01:31:49;14.80;99.90
8214;DHT22;4148;47.974;7.824;2022-09-13T01:34:27;15.00;99.90
8214;DHT22;4148;47.974;7.824;2022-09-13T01:37:12;15.10;99.90
8214;DHT22;4148;47.974;7.824;2022-09-13T01:39:52;15.10;87.10
8214;DHT22;4148;47.974;7.824;2022-09-13T01:42:29;15.20;99.90
8214;DHT22;4148;47.974;7.824;2022-09-13T01:45:13;15.20;99.90
8214;DHT22;4148;47.974;7.824;2022-09-13T01:47:49;15.10;1.00
8214;DHT22;4148;47.974;7.824;2022-09-13T01:50:23;15.10;1.00
8214;DHT22;4148;47.974;7.824;2022-09-13T01:52:55;15.10;1.00
8214;DHT22;4148;47.974;7.824;2022-09-13T01:55:32;15.00;99.90
8214;DHT22;4148;47.974;7.824;2022-09-13T01:58:07;14.90;1.00
8214;DHT22;4148;47.974;7.824;2022-09-13T02:00:40;14.90;99.90
8214;DHT22;4148;47.974;7.824;2022-09-13T02:03:15;14.80;99.90
8214;DHT22;4148;47.974;7.824;2022-09-13T02:05:46;14.90;99.90
8214;DHT22;4148;47.974;7.824;2022-09-13T02:08:18;14.90;99.90
8214;DHT22;4148;47.974;7.824;2022-09-13T02:10:52;14.70;99.90
8214;DHT22;4148;47.974;7.824;2022-09-13T02:13:25;14.50;99.90
8214;DHT22;4148;47.974;7.824;2022-09-13T02:15:58;14.50;99.90
8214;DHT22;4148;47.974;7.824;2022-09-13T02:18:31;14.60;99.90
8214;DHT22;4148;47.974;7.824;2022-09-13T02:21:07;14.40;99.90
8214;DHT22;4148;47.974;7.824;2022-09-13T02:23:39;14.40;99.90
8214;DHT22;4148;47.974;7.824;2022-09-13T02:26:11;14.50;99.90
8214;DHT22;4148;47.974;7.824;2022-09-13T02:28:43;14.50;99.90
8214;DHT22;4148;47.974;7.824;2022-09-13T02:31:17;14.50;99.90
8214;DHT22;4148;47.974;7.824;2022-09-13T02:33:52;14.50;99.90
8214;DHT22;4148;47.974;7.824;2022-09-13T02:36:23;14.50;99.90
8214;DHT22;4148;47.974;7.824;2022-09-13T02:38:55;14.40;99.90
8214;DHT22;4148;47.974;7.824;2022-09-13T02:41:31;14.50;99.90
8214;DHT22;4148;47.974;7.824;2022-09-13T02:44:06;14.60;99.90
8214;DHT22;4148;47.974;7.824;2022-09-13T02:46:44;14.50;99.90
8214;DHT22;4148;47.974;7.824;2022-09-13T02:49:22;14.50;99.90
8214;DHT22;4148;47.974;7.824;2022-09-13T02:51:58;14.50;99.90
8214;DHT22;4148;47.974;7.824;2022-09-13T02:54:32;14.40;99.90
8214;DHT22;4148;47.974;7.824;2022-09-13T02:57:06;14.50;99.90
8214;DHT22;4148;47.974;7.824;2022-09-13T02:59:36;14.50;99.90
8214;DHT22;4148;47.974;7.824;2022-09-13T03:02:06;14.60;99.90
8214;DHT22;4148;47.974;7.824;2022-09-13T03:04:36;14.40;99.90
8214;DHT22;4148;47.974;7.824;2022-09-13T03:07:07;14.40;1.00
8214;DHT22;4148;47.974;7.824;2022-09-13T03:09:36;14.40;1.00
8214;DHT22;4148;47.974;7.824;2022-09-13T03:12:33;14.40;1.00
8214;DHT22;4148;47.974;7.824;2022-09-13T03:15:13;14.40;1.00
8214;DHT22;4148;47.974;7.824;2022-09-13T03:17:51;14.30;1.00
8214;DHT22;4148;47.974;7.824;2022-09-13T03:20:31;14.30;1.00
8214;DHT22;4148;47.974;7.824;2022-09-13T03:23:35;14.20;1.00
8214;DHT22;4148;47.974;7.824;2022-09-13T03:26:18;14.30;1.00
8214;DHT22;4148;47.974;7.824;2022-09-13T03:29:00;14.20;1.00
8214;DHT22;4148;47.974;7.824;2022-09-13T03:31:34;14.20;1.00
8214;DHT22;4148;47.974;7.824;2022-09-13T03:34:08;14.10;1.00
8214;DHT22;4148;47.974;7.824;2022-09-13T03:36:42;14.10;1.00
8214;DHT22;4148;47.974;7.824;2022-09-13T03:39:16;14.00;1.00
8214;DHT22;4148;47.974;7.824;2022-09-13T03:41:51;13.80;1.00
8214;DHT22;4148;47.974;7.824;2022-09-13T03:44:22;14.00;1.00
8214;DHT22;4148;47.974;7.824;2022-09-13T03:46:54;13.90;1.00
8214;DHT22;4148;47.974;7.824;2022-09-13T03:49:25;14.00;1.00
8214;DHT22;4148;47.974;7.824;2022-09-13T03:51:55;14.10;99.90
8214;DHT22;4148;47.974;7.824;2022-09-13T03:54:26;14.10;99.90
8214;DHT22;4148;47.974;7.824;2022-09-13T03:57:08;14.20;99.90
8214;DHT22;4148;47.974;7.824;2022-09-13T03:59:38;14.20;99.90
8214;DHT22;4148;47.974;7.824;2022-09-13T04:02:09;14.20;1.00
8214;DHT22;4148;47.974;7.824;2022-09-13T04:04:38;14.20;1.00
8214;DHT22;4148;47.974;7.824;2022-09-13T04:07:08;14.00;1.00
8214;DHT22;4148;47.974;7.824;2022-09-13T04:09:36;14.00;1.00
8214;DHT22;4148;47.974;7.824;2022-09-13T04:12:05;13.90;1.00
8214;DHT22;4148;47.974;7.824;2022-09-13T04:14:33;13.80;1.00
8214;DHT22;4148;47.974;7.824;2022-09-13T04:17:01;13.80;1.00
8214;DHT22;4148;47.974;7.824;2022-09-13T04:19:29;13.70;1.00
8214;DHT22;4148;47.974;7.824;2022-09-13T04:21:57;13.60;1.00
8214;DHT22;4148;47.974;7.824;2022-09-13T04:24:28;13.70;1.00
8214;DHT22;4148;47.974;7.824;2022-09-13T04:26:57;13.80;1.00
8214;DHT22;4148;47.974;7.824;2022-09-13T04:29:26;13.90;1.00
8214;DHT22;4148;47.974;7.824;2022-09-13T04:31:54;14.10;1.00
8214;DHT22;4148;47.974;7.824;2022-09-13T04:34:22;14.10;1.00
8214;DHT22;4148;47.974;7.824;2022-09-13T04:36:51;14.00;1.00
8214;DHT22;4148;47.974;7.824;2022-09-13T04:39:20;13.90;1.00
8214;DHT22;4148;47.974;7.824;2022-09-13T04:41:51;13.90;1.00
8214;DHT22;4148;47.974;7.824;2022-09-13T04:44:20;13.90;1.00
8214;DHT22;4148;47.974;7.824;2022-09-13T04:46:48;13.90;1.00
8214;DHT22;4148;47.974;7.824;2022-09-13T04:49:17;13.80;1.00
8214;DHT22;4148;47.974;7.824;2022-09-13T04:51:46;13.90;1.00
8214;DHT22;4148;47.974;7.824;2022-09-13T04:54:14;13.90;1.00
8214;DHT22;4148;47.974;7.824;2022-09-13T04:56:42;13.80;1.00
8214;DHT22;4148;47.974;7.824;2022-09-13T04:59:12;13.60;1.00
8214;DHT22;4148;47.974;7.824;2022-09-13T05:01:40;13.60;1.00
8214;DHT22;4148;47.974;7.824;2022-09-13T05:04:08;13.50;1.00
8214;DHT22;4148;47.974;7.824;2022-09-13T05:06:37;13.50;1.00
8214;DHT22;4148;47.974;7.824;2022-09-13T05:09:05;13.50;1.00
8214;DHT22;4148;47.974;7.824;2022-09-13T05:11:33;13.50;1.00
8214;DHT22;4148;47.974;7.824;2022-09-13T05:14:01;13.50;1.00
8214;DHT22;4148;47.974;7.824;2022-09-13T05:16:32;13.40;1.00
8214;DHT22;4148;47.974;7.824;2022-09-13T05:19:00;13.40;1.00
8214;DHT22;4148;47.974;7.824;2022-09-13T05:21:29;13.40;1.00
8214;DHT22;4148;47.974;7.824;2022-09-13T05:23:57;13.40;1.00
8214;DHT22;4148;47.974;7.824;2022-09-13T05:26:28;13.60;1.00
8214;DHT22;4148;47.974;7.824;2022-09-13T05:28:56;13.80;1.00
8214;DHT22;4148;47.974;7.824;2022-09-13T05:31:26;13.70;1.00
8214;DHT22;4148;47.974;7.824;2022-09-13T05:33:58;13.60;1.00
8214;DHT22;4148;47.974;7.824;2022-09-13T05:36:26;13.60;1.00
8214;DHT22;4148;47.974;7.824;2022-09-13T05:38:54;13.70;1.00
8214;DHT22;4148;47.974;7.824;2022-09-13T05:41:43;13.70;1.00
8214;DHT22;4148;47.974;7.824;2022-09-13T05:44:11;13.60;1.00
8214;DHT22;4148;47.974;7.824;2022-09-13T05:46:40;13.80;1.00
8214;DHT22;4148;47.974;7.824;2022-09-13T05:49:10;13.90;1.00
8214;DHT22;4148;47.974;7.824;2022-09-13T05:51:39;14.00;1.00
8214;DHT22;4148;47.974;7.824;2022-09-13T05:54:09;14.10;1.00
8214;DHT22;4148;47.974;7.824;2022-09-13T05:56:38;14.20;1.00
8214;DHT22;4148;47.974;7.824;2022-09-13T05:59:06;14.20;1.00
8214;DHT22;4148;47.974;7.824;2022-09-13T06:01:34;14.30;1.00
8214;DHT22;4148;47.974;7.824;2022-09-13T06:04:02;14.30;1.00
8214;DHT22;4148;47.974;7.824;2022-09-13T06:06:31;14.30;1.00
8214;DHT22;4148;47.974;7.824;2022-09-13T06:09:00;14.30;1.00
8214;DHT22;4148;47.974;7.824;2022-09-13T06:11:29;14.40;1.00
8214;DHT22;4148;47.974;7.824;2022-09-13T06:13:56;14.40;1.00
8214;DHT22;4148;47.974;7.824;2022-09-13T06:16:24;14.40;1.00
8214;DHT22;4148;47.974;7.824;2022-09-13T06:18:52;14.40;1.00
8214;DHT22;4148;47.974;7.824;2022-09-13T06:21:21;14.30;1.00
8214;DHT22;4148;47.974;7.824;2022-09-13T06:23:56;14.30;1.00
8214;DHT22;4148;47.974;7.824;2022-09-13T06:26:25;14.30;1.00
8214;DHT22;4148;47.974;7.824;2022-09-13T06:28:55;14.40;1.00
8214;DHT22;4148;47.974;7.824;2022-09-13T06:31:26;14.40;1.00
8214;DHT22;4148;47.974;7.824;2022-09-13T06:33:56;14.50;1.00
8214;DHT22;4148;47.974;7.824;2022-09-13T06:36:24;14.50;1.00
8214;DHT22;4148;47.974;7.824;2022-09-13T06:38:52;14.60;1.00
8214;DHT22;4148;47.974;7.824;2022-09-13T06:41:22;14.80;1.00
8214;DHT22;4148;47.974;7.824;2022-09-13T06:43:53;14.80;1.00
8214;DHT22;4148;47.974;7.824;2022-09-13T06:46:21;14.90;1.00
8214;DHT22;4148;47.974;7.824;2022-09-13T06:48:51;15.00;1.00
8214;DHT22;4148;47.974;7.824;2022-09-13T06:51:22;15.10;1.00
8214;DHT22;4148;47.974;7.824;2022-09-13T06:53:51;15.20;1.00
8214;DHT22;4148;47.974;7.824;2022-09-13T06:56:24;15.40;1.00
8214;DHT22;4148;47.974;7.824;2022-09-13T06:58:55;15.50;1.00
8214;DHT22;4148;47.974;7.824;2022-09-13T07:01:25;15.60;1.00
8214;DHT22;4148;47.974;7.824;2022-09-13T07:03:56;15.80;1.00
8214;DHT22;4148;47.974;7.824;2022-09-13T07:06:25;16.00;1.00
8214;DHT22;4148;47.974;7.824;2022-09-13T07:08:54;16.20;1.00
8214;DHT22;4148;47.974;7.824;2022-09-13T07:11:25;16.30;1.00
8214;DHT22;4148;47.974;7.824;2022-09-13T07:13:54;16.50;1.00
8214;DHT22;4148;47.974;7.824;2022-09-13T07:16:24;16.70;1.00
8214;DHT22;4148;47.974;7.824;2022-09-13T07:18:53;16.80;99.90
8214;DHT22;4148;47.974;7.824;2022-09-13T07:21:22;16.90;99.90
8214;DHT22;4148;47.974;7.824;2022-09-13T07:23:51;17.00;99.90
8214;DHT22;4148;47.974;7.824;2022-09-13T07:26:19;17.20;99.90
8214;DHT22;4148;47.974;7.824;2022-09-13T07:28:51;17.30;99.90
8214;DHT22;4148;47.974;7.824;2022-09-13T07:31:20;17.40;28.60
8214;DHT22;4148;47.974;7.824;2022-09-13T07:33:52;17.50;82.10
8214;DHT22;4148;47.974;7.824;2022-09-13T07:36:21;17.70;99.90
8214;DHT22;4148;47.974;7.824;2022-09-13T07:38:49;17.70;99.90
8214;DHT22;4148;47.974;7.824;2022-09-13T07:41:18;17.90;1.00
8214;DHT22;4148;47.974;7.824;2022-09-13T07:43:46;18.20;99.90
8214;DHT22;4148;47.974;7.824;2022-09-13T07:46:18;18.70;1.00
8214;DHT22;4148;47.974;7.824;2022-09-13T07:48:47;19.40;95.60
8214;DHT22;4148;47.974;7.824;2022-09-13T07:51:17;20.40;1.00
8214;DHT22;4148;47.974;7.824;2022-09-13T07:53:46;21.10;1.00
8214;DHT22;4148;47.974;7.824;2022-09-13T07:56:23;21.90;99.90
8214;DHT22;4148;47.974;7.824;2022-09-13T07:58:52;22.70;99.90
8214;DHT22;4148;47.974;7.824;2022-09-13T08:01:24;23.00;86.00
8214;DHT22;4148;47.974;7.824;2022-09-13T08:03:54;23.40;1.00
8214;DHT22;4148;47.974;7.824;2022-09-13T08:06:22;23.50;1.00
8214;DHT22;4148;47.974;7.824;2022-09-13T08:08:50;23.80;1.00
8214;DHT22;4148;47.974;7.824;2022-09-13T08:11:20;24.40;1.00
8214;DHT22;4148;47.974;7.824;2022-09-13T08:13:50;24.80;1.00
8214;DHT22;4148;47.974;7.824;2022-09-13T08:16:20;25.30;1.00
8214;DHT22;4148;47.974;7.824;2022-09-13T08:18:52;25.80;1.00
8214;DHT22;4148;47.974;7.824;2022-09-13T08:21:20;25.80;1.00
8214;DHT22;4148;47.974;7.824;2022-09-13T08:23:48;26.20;1.00
8214;DHT22;4148;47.974;7.824;2022-09-13T08:26:16;26.40;99.90
8214;DHT22;4148;47.974;7.824;2022-09-13T08:28:44;26.20;99.90
8214;DHT22;4148;47.974;7.824;2022-09-13T08:31:14;26.50;99.90
8214;DHT22;4148;47.974;7.824;2022-09-13T08:33:44;26.60;99.90
8214;DHT22;4148;47.974;7.824;2022-09-13T08:36:14;26.90;99.90
8214;DHT22;4148;47.974;7.824;2022-09-13T08:38:45;26.90;99.90
8214;DHT22;4148;47.974;7.824;2022-09-13T08:41:34;27.40;99.90
8214;DHT22;4148;47.974;7.824;2022-09-13T08:44:15;27.50;99.90
8214;DHT22;4148;47.974;7.824;2022-09-13T08:46:45;27.90;99.90
8214;DHT22;4148;47.974;7.824;2022-09-13T08:49:18;28.00;99.90
8214;DHT22;4148;47.974;7.824;2022-09-13T08:51:50;28.10;99.90
8214;DHT22;4148;47.974;7.824;2022-09-13T08:54:19;28.30;99.90
8214;DHT22;4148;47.974;7.824;2022-09-13T08:56:52;28.30;99.90
8214;DHT22;4148;47.974;7.824;2022-09-13T08:59:31;28.90;99.90
8214;DHT22;4148;47.974;7.824;2022-09-13T09:02:11;28.40;99.90
8214;DHT22;4148;47.974;7.824;2022-09-13T09:04:45;27.90;99.90
8214;DHT22;4148;47.974;7.824;2022-09-13T09:07:20;27.60;99.90
8214;DHT22;4148;47.974;7.824;2022-09-13T09:09:51;27.60;99.90
8214;DHT22;4148;47.974;7.824;2022-09-13T09:12:30;27.90;99.90
8214;DHT22;4148;47.974;7.824;2022-09-13T09:15:04;28.00;99.90
8214;DHT22;4148;47.974;7.824;2022-09-13T09:17:41;28.00;99.90
8214;DHT22;4148;47.974;7.824;2022-09-13T09:20:20;28.00;99.90
8214;DHT22;4148;47.974;7.824;2022-09-13T09:22:52;28.40;99.90
8214;DHT22;4148;47.974;7.824;2022-09-13T09:25:22;28.40;99.90
8214;DHT22;4148;47.974;7.824;2022-09-13T09:27:52;28.60;99.90
8214;DHT22;4148;47.974;7.824;2022-09-13T09:30:20;28.80;99.90
8214;DHT22;4148;47.974;7.824;2022-09-13T09:33:08;28.80;99.90
8214;DHT22;4148;47.974;7.824;2022-09-13T09:35:49;28.80;99.90
8214;DHT22;4148;47.974;7.824;2022-09-13T09:38:37;28.80;99.90
8214;DHT22;4148;47.974;7.824;2022-09-13T09:41:13;28.90;99.90
8214;DHT22;4148;47.974;7.824;2022-09-13T09:43:46;29.10;99.90
8214;DHT22;4148;47.974;7.824;2022-09-13T09:46:22;28.80;99.90
8214;DHT22;4148;47.974;7.824;2022-09-13T09:48:55;28.60;99.90
8214;DHT22;4148;47.974;7.824;2022-09-13T09:51:25;28.30;99.90
8214;DHT22;4148;47.974;7.824;2022-09-13T09:54:01;28.50;99.90
8214;DHT22;4148;47.974;7.824;2022-09-13T09:56:32;28.90;99.90
8214;DHT22;4148;47.974;7.824;2022-09-13T09:59:01;28.80;99.90
8214;DHT22;4148;47.974;7.824;2022-09-13T10:01:31;29.20;99.90
8214;DHT22;4148;47.974;7.824;2022-09-13T10:04:05;29.20;99.90
8214;DHT22;4148;47.974;7.824;2022-09-13T10:06:36;29.10;99.90
8214;DHT22;4148;47.974;7.824;2022-09-13T10:09:17;29.20;99.90
8214;DHT22;4148;47.974;7.824;2022-09-13T10:11:47;29.30;99.90
8214;DHT22;4148;47.974;7.824;2022-09-13T10:14:34;29.20;99.90
8214;DHT22;4148;47.974;7.824;2022-09-13T10:17:05;29.50;99.90
8214;DHT22;4148;47.974;7.824;2022-09-13T10:19:33;29.00;99.90
8214;DHT22;4148;47.974;7.824;2022-09-13T10:22:03;29.00;99.90
8214;DHT22;4148;47.974;7.824;2022-09-13T10:24:33;29.10;99.90
8214;DHT22;4148;47.974;7.824;2022-09-13T10:27:01;29.00;99.90
8214;DHT22;4148;47.974;7.824;2022-09-13T10:29:30;29.00;99.90
8214;DHT22;4148;47.974;7.824;2022-09-13T10:31:59;29.20;99.90
8214;DHT22;4148;47.974;7.824;2022-09-13T10:34:35;29.40;99.90
8214;DHT22;4148;47.974;7.824;2022-09-13T10:37:11;29.60;99.90
8214;DHT22;4148;47.974;7.824;2022-09-13T10:39:52;29.70;99.90
8214;DHT22;4148;47.974;7.824;2022-09-13T10:42:24;30.10;99.90
8214;DHT22;4148;47.974;7.824;2022-09-13T10:44:54;30.30;99.90
8214;DHT22;4148;47.974;7.824;2022-09-13T10:47:26;30.30;99.90
8214;DHT22;4148;47.974;7.824;2022-09-13T10:49:56;30.30;99.90
8214;DHT22;4148;47.974;7.824;2022-09-13T10:52:27;30.20;99.90
8214;DHT22;4148;47.974;7.824;2022-09-13T10:55:22;30.70;99.90
8214;DHT22;4148;47.974;7.824;2022-09-13T10:57:52;30.40;99.90
8214;DHT22;4148;47.974;7.824;2022-09-13T11:00:22;30.40;99.90
8214;DHT22;4148;47.974;7.824;2022-09-13T11:03:04;30.60;99.90
8214;DHT22;4148;47.974;7.824;2022-09-13T11:05:39;30.80;99.90
8214;DHT22;4148;47.974;7.824;2022-09-13T11:08:22;31.10;99.90
8214;DHT22;4148;47.974;7.824;2022-09-13T11:11:02;31.30;99.90
8214;DHT22;4148;47.974;7.824;2022-09-13T11:13:38;31.20;99.90
8214;DHT22;4148;47.974;7.824;2022-09-13T11:16:23;31.40;99.90
8214;DHT22;4148;47.974;7.824;2022-09-13T11:19:05;31.50;99.90
8214;DHT22;4148;47.974;7.824;2022-09-13T11:21:44;31.60;99.90
8214;DHT22;4148;47.974;7.824;2022-09-13T11:24:31;31.80;99.90
8214;DHT22;4148;47.974;7.824;2022-09-13T11:27:08;32.00;99.90
8214;DHT22;4148;47.974;7.824;2022-09-13T11:29:53;32.20;99.90
8214;DHT22;4148;47.974;7.824;2022-09-13T11:32:33;32.40;99.90
8214;DHT22;4148;47.974;7.824;2022-09-13T11:35:18;32.40;99.90
8214;DHT22;4148;47.974;7.824;2022-09-13T11:37:53;32.20;99.90
8214;DHT22;4148;47.974;7.824;2022-09-13T11:40:46;32.10;99.90
8214;DHT22;4148;47.974;7.824;2022-09-13T11:43:39;31.80;99.90
8214;DHT22;4148;47.974;7.824;2022-09-13T11:46:16;31.50;99.90
8214;DHT22;4148;47.974;7.824;2022-09-13T11:49:18;31.40;99.90
8214;DHT22;4148;47.974;7.824;2022-09-13T11:52:01;31.20;99.90
8214;DHT22;4148;47.974;7.824;2022-09-13T11:54:37;30.90;99.90
8214;DHT22;4148;47.974;7.824;2022-09-13T11:57:13;30.80;99.90
8214;DHT22;4148;47.974;7.824;2022-09-13T11:59:48;30.70;99.90
8214;DHT22;4148;47.974;7.824;2022-09-13T12:02:24;30.40;99.90
8214;DHT22;4148;47.974;7.824;2022-09-13T12:04:57;30.20;99.90
8214;DHT22;4148;47.974;7.824;2022-09-13T12:07:49;30.10;99.90
8214;DHT22;4148;47.974;7.824;2022-09-13T12:10:22;30.00;99.90
8214;DHT22;4148;47.974;7.824;2022-09-13T12:12:52;30.00;99.90
8214;DHT22;4148;47.974;7.824;2022-09-13T12:15:28;29.90;99.90
8214;DHT22;4148;47.974;7.824;2022-09-13T12:18:01;29.90;99.90
8214;DHT22;4148;47.974;7.824;2022-09-13T12:20:35;29.70;99.90
8214;DHT22;4148;47.974;7.824;2022-09-13T12:23:10;29.40;99.90
8214;DHT22;4148;47.974;7.824;2022-09-13T12:25:46;29.30;99.90
8214;DHT22;4148;47.974;7.824;2022-09-13T12:28:20;29.20;99.90
8214;DHT22;4148;47.974;7.824;2022-09-13T12:30:54;29.10;99.90
8214;DHT22;4148;47.974;7.824;2022-09-13T12:33:23;29.00;99.90
8214;DHT22;4148;47.974;7.824;2022-09-13T12:39:33;28.90;99.90
8214;DHT22;4148;47.974;7.824;2022-09-13T12:42:22;28.90;99.90
8214;DHT22;4148;47.974;7.824;2022-09-13T12:45:07;28.90;99.90
8214;DHT22;4148;47.974;7.824;2022-09-13T12:47:58;29.00;99.90
8214;DHT22;4148;47.974;7.824;2022-09-13T12:50:50;29.00;99.90
8214;DHT22;4148;47.974;7.824;2022-09-13T12:53:38;28.90;99.90
8214;DHT22;4148;47.974;7.824;2022-09-13T12:56:31;28.80;99.90
8214;DHT22;4148;47.974;7.824;2022-09-13T13:01:53;28.80;99.90
8214;DHT22;4148;47.974;7.824;2022-09-13T13:04:26;28.80;99.90
8214;DHT22;4148;47.974;7.824;2022-09-13T13:06:57;28.80;99.90
8214;DHT22;4148;47.974;7.824;2022-09-13T13:09:36;28.80;99.90
8214;DHT22;4148;47.974;7.824;2022-09-13T13:12:07;28.80;99.90
8214;DHT22;4148;47.974;7.824;2022-09-13T13:14:48;28.90;99.90
8214;DHT22;4148;47.974;7.824;2022-09-13T13:17:39;28.90;99.90
8214;DHT22;4148;47.974;7.824;2022-09-13T13:21:02;28.90;99.90
8214;DHT22;4148;47.974;7.824;2022-09-13T13:23:31;28.90;99.90
8214;DHT22;4148;47.974;7.824;2022-09-13T13:26:10;28.90;99.90
8214;DHT22;4148;47.974;7.824;2022-09-13T13:29:11;28.70;99.90
8214;DHT22;4148;47.974;7.824;2022-09-13T13:31:44;28.60;99.90
8214;DHT22;4148;47.974;7.824;2022-09-13T13:34:38;28.60;99.90
8214;DHT22;4148;47.974;7.824;2022-09-13T13:40:24;28.40;99.90
8214;DHT22;4148;47.974;7.824;2022-09-13T13:43:14;28.30;99.90
8214;DHT22;4148;47.974;7.824;2022-09-13T13:45:56;28.30;99.90
8214;DHT22;4148;47.974;7.824;2022-09-13T13:48:36;28.30;99.90
8214;DHT22;4148;47.974;7.824;2022-09-13T13:51:15;28.20;99.90
8214;DHT22;4148;47.974;7.824;2022-09-13T13:53:47;28.10;99.90
8214;DHT22;4148;47.974;7.824;2022-09-13T13:56:23;28.00;99.90
8214;DHT22;4148;47.974;7.824;2022-09-13T13:58:55;27.90;99.90
8214;DHT22;4148;47.974;7.824;2022-09-13T14:01:27;27.80;99.90
8214;DHT22;4148;47.974;7.824;2022-09-13T14:07:07;27.60;99.90
8214;DHT22;4148;47.974;7.824;2022-09-13T14:09:52;27.60;99.90
8214;DHT22;4148;47.974;7.824;2022-09-13T14:12:33;27.60;99.90
8214;DHT22;4148;47.974;7.824;2022-09-13T14:15:18;27.60;99.90
8214;DHT22;4148;47.974;7.824;2022-09-13T14:21:02;27.40;99.90
8214;DHT22;4148;47.974;7.824;2022-09-13T14:23:30;27.30;99.90
8214;DHT22;4148;47.974;7.824;2022-09-13T14:26:00;27.30;99.90
8214;DHT22;4148;47.974;7.824;2022-09-13T14:28:31;27.20;99.90
8214;DHT22;4148;47.974;7.824;2022-09-13T14:30:59;27.30;99.90
8214;DHT22;4148;47.974;7.824;2022-09-13T14:33:28;27.20;99.90
8214;DHT22;4148;47.974;7.824;2022-09-13T14:36:03;27.20;99.90
8214;DHT22;4148;47.974;7.824;2022-09-13T14:38:33;27.10;99.90
8214;DHT22;4148;47.974;7.824;2022-09-13T14:41:13;27.00;99.90
8214;DHT22;4148;47.974;7.824;2022-09-13T14:43:44;27.00;99.90
8214;DHT22;4148;47.974;7.824;2022-09-13T14:46:16;27.00;99.90
8214;DHT22;4148;47.974;7.824;2022-09-13T14:48:48;26.90;99.90
8214;DHT22;4148;47.974;7.824;2022-09-13T14:51:22;26.90;99.90
8214;DHT22;4148;47.974;7.824;2022-09-13T14:53:54;26.90;99.90
8214;DHT22;4148;47.974;7.824;2022-09-13T14:56:34;26.90;99.90
8214;DHT22;4148;47.974;7.824;2022-09-13T14:59:06;26.80;99.90
8214;DHT22;4148;47.974;7.824;2022-09-13T15:01:39;26.80;99.90
8214;DHT22;4148;47.974;7.824;2022-09-13T15:04:07;26.70;99.90
8214;DHT22;4148;47.974;7.824;2022-09-13T15:06:37;26.60;99.90
8214;DHT22;4148;47.974;7.824;2022-09-13T15:09:21;26.50;99.90
8214;DHT22;4148;47.974;7.824;2022-09-13T15:11:57;26.50;99.90
8214;DHT22;4148;47.974;7.824;2022-09-13T15:14:28;26.40;99.90
8214;DHT22;4148;47.974;7.824;2022-09-13T15:16:59;26.40;99.90
8214;DHT22;4148;47.974;7.824;2022-09-13T15:19:38;26.30;99.90
8214;DHT22;4148;47.974;7.824;2022-09-13T15:22:18;26.20;99.90
8214;DHT22;4148;47.974;7.824;2022-09-13T15:24:49;26.20;99.90
8214;DHT22;4148;47.974;7.824;2022-09-13T15:27:23;26.10;99.90
8214;DHT22;4148;47.974;7.824;2022-09-13T15:29:55;26.10;99.90
8214;DHT22;4148;47.974;7.824;2022-09-13T15:32:31;26.00;99.90
8214;DHT22;4148;47.974;7.824;2022-09-13T15:35:01;26.00;1.00
8214;DHT22;4148;47.974;7.824;2022-09-13T15:37:32;25.90;1.00
8214;DHT22;4148;47.974;7.824;2022-09-13T15:40:13;25.90;1.00
8214;DHT22;4148;47.974;7.824;2022-09-13T15:42:45;25.80;99.90
8214;DHT22;4148;47.974;7.824;2022-09-13T15:45:14;25.80;1.00
8214;DHT22;4148;47.974;7.824;2022-09-13T15:47:44;25.80;1.00
8214;DHT22;4148;47.974;7.824;2022-09-13T15:50:19;25.80;1.00
8214;DHT22;4148;47.974;7.824;2022-09-13T15:52:47;25.80;1.00
8214;DHT22;4148;47.974;7.824;2022-09-13T15:55:15;25.90;1.00
8214;DHT22;4148;47.974;7.824;2022-09-13T15:57:44;25.90;1.00
8214;DHT22;4148;47.974;7.824;2022-09-13T16:00:19;26.00;1.00
8214;DHT22;4148;47.974;7.824;2022-09-13T16:02:48;26.00;1.00
8214;DHT22;4148;47.974;7.824;2022-09-13T16:05:16;26.00;1.00
8214;DHT22;4148;47.974;7.824;2022-09-13T16:07:45;26.00;1.00
8214;DHT22;4148;47.974;7.824;2022-09-13T16:10:14;25.90;1.00
8214;DHT22;4148;47.974;7.824;2022-09-13T16:12:42;25.90;1.00
8214;DHT22;4148;47.974;7.824;2022-09-13T16:15:10;25.80;1.00
8214;DHT22;4148;47.974;7.824;2022-09-13T16:17:41;25.70;1.00
8214;DHT22;4148;47.974;7.824;2022-09-13T16:20:11;25.60;68.30
8214;DHT22;4148;47.974;7.824;2022-09-13T16:22:40;25.50;99.90
8214;DHT22;4148;47.974;7.824;2022-09-13T16:25:08;25.40;99.90
8214;DHT22;4148;47.974;7.824;2022-09-13T16:27:38;25.40;1.00
8214;DHT22;4148;47.974;7.824;2022-09-13T16:30:08;25.30;1.00
8214;DHT22;4148;47.974;7.824;2022-09-13T16:32:36;25.20;1.00
8214;DHT22;4148;47.974;7.824;2022-09-13T16:35:07;25.20;99.90
8214;DHT22;4148;47.974;7.824;2022-09-13T16:37:35;25.10;99.90
8214;DHT22;4148;47.974;7.824;2022-09-13T16:40:03;25.00;1.00
8214;DHT22;4148;47.974;7.824;2022-09-13T16:42:32;24.90;99.90
8214;DHT22;4148;47.974;7.824;2022-09-13T16:45:00;24.90;33.60
8214;DHT22;4148;47.974;7.824;2022-09-13T16:47:28;24.90;99.90
8214;DHT22;4148;47.974;7.824;2022-09-13T16:49:56;24.80;99.90
8214;DHT22;4148;47.974;7.824;2022-09-13T16:52:26;24.80;99.90
8214;DHT22;4148;47.974;7.824;2022-09-13T16:54:54;24.60;99.90
8214;DHT22;4148;47.974;7.824;2022-09-13T16:57:22;24.60;1.00
8214;DHT22;4148;47.974;7.824;2022-09-13T16:59:51;24.50;1.00
8214;DHT22;4148;47.974;7.824;2022-09-13T17:02:20;24.70;99.90
8214;DHT22;4148;47.974;7.824;2022-09-13T17:04:48;24.90;99.90